• Join FlightAware (Why Join?)
  • Login
  • US Flag 
08:13AM EST


 

Airport Tracker/Info


-or-


 

Live Flight TrackerFlight Track Log ✈ N31KE ✈ 24-Feb-2014 ✈ KGSO - KCRW

Flight Track Log - Related Links

Times and Time Zones

All times are in EST time to prevent confusion due to time zone crossing. See the N31KE flight status page for this flight to view local times or setup timezone preferences in your user account.

Time Position Orientation Groundspeed Altitude Reporting Facility
EST Latitude Longitude Course Direction KTS MPH feet Rate Location/Type
08:27AM 36.4883 -80.2661 334° Northwest 98 113 6,400  Level Atlanta Center
08:28AM 36.5117 -80.2806 334° Northwest 88 101 6,600 60 Climbing Atlanta Center
08:29AM 36.5311 -80.3003 321° Northwest 102 117 6,600 -60 Level Atlanta Center
08:30AM 36.5522 -80.3122 336° Northwest 96 110 6,500 -60 Descending Atlanta Center
08:31AM 36.5736 -80.3242 336° Northwest 96 110 6,500  Level Atlanta Center
08:32AM 36.5950 -80.3411 328° Northwest 96 110 6,600  Climbing Atlanta Center
08:33AM 36.6183 -80.3556 334° Northwest 96 110 6,500 -60 Descending Atlanta Center
08:34AM 36.6439 -80.3753 328° Northwest 96 110 6,500  Level Atlanta Center
08:35AM 36.6653 -80.3897 332° Northwest 96 110 6,500  Level Atlanta Center
08:36AM 36.6886 -80.4042 334° Northwest 96 110 6,500  Level Atlanta Center
08:37AM 36.7097 -80.4189 331° Northwest 96 110 6,500  Level Atlanta Center
08:38AM 36.7289 -80.4333 329° Northwest 91 105 6,500  Level Atlanta Center
08:39AM 36.7522 -80.4478 334° Northwest 86 99 6,500  Level Atlanta Center
08:40AM 36.7694 -80.4600 330° Northwest 86 99 6,500  Level Atlanta Center
08:41AM 36.7906 -80.4747 331° Northwest 81 93 6,500  Level Atlanta Center
08:42AM 36.8097 -80.4894 328° Northwest 81 93 6,500  Level Atlanta Center
08:43AM 36.8333 -80.5039 334° Northwest 81 93 6,500  Level Atlanta Center
08:44AM 36.8525 -80.5186 328° Northwest 81 93 6,500  Level Atlanta Center
08:45AM 36.8758 -80.5331 334° Northwest 81 93 6,500  Level Atlanta Center
08:46AM 36.8969 -80.5478 331° Northwest 81 93 6,500  Level Atlanta Center
08:47AM 36.9183 -80.5625 331° Northwest 81 93 6,600  Climbing Atlanta Center
08:48AM 36.9417 -80.5794 330° Northwest 81 93 6,500 -60 Descending Atlanta Center
08:49AM 36.9631 -80.5942 331° Northwest 86 99 6,500  Level Atlanta Center
08:50AM 36.9822 -80.6089 328° Northwest 86 99 6,500  Level Atlanta Center
08:51AM 37.0056 -80.6236 333° Northwest 86 99 6,500  Level Atlanta Center
08:52AM 37.0247 -80.6408 324° Northwest 86 99 6,500 -60 Level Atlanta Center
08:53AM 37.0522 -80.6553 337° Northwest 86 99 6,400  Descending Atlanta Center
08:54AM 37.0714 -80.6728 324° Northwest 88 101 6,500 60 Climbing Atlanta Center
08:55AM 37.0928 -80.6875 331° Northwest 83 96 6,600  Climbing Atlanta Center
08:56AM 37.1139 -80.7047 327° Northwest 83 96 6,500 -60 Descending Atlanta Center
08:58AM 37.1536 -80.7281 335° Northwest 91 105 6,500  Level Indianapolis Center
08:59AM 37.1775 -80.7428 334° Northwest 91 105 6,600  Climbing Indianapolis Center
09:00AM 37.1961 -80.7592 325° Northwest 91 105 6,600  Level Indianapolis Center
09:01AM 37.2197 -80.7731 335° Northwest 91 105 6,600  Level Indianapolis Center
09:02AM 37.2478 -80.7911 333° Northwest 93 107 6,600 -60 Level Indianapolis Center
09:03AM 37.2683 -80.8056 331° Northwest 93 107 6,500  Descending Indianapolis Center
09:04AM 37.2881 -80.8181 333° Northwest 87 100 6,600  Climbing Indianapolis Center
09:05AM 37.3061 -80.8328 327° Northwest 82 94 6,600  Level Indianapolis Center
09:06AM 37.3347 -80.8519 332° Northwest 91 105 6,600  Level Indianapolis Center
09:07AM 37.3556 -80.8656 333° Northwest 91 105 6,600  Level Indianapolis Center
09:08AM 37.3778 -80.8825 329° Northwest 91 105 6,600  Level Indianapolis Center
09:09AM 37.4022 -80.8981 333° Northwest 96 110 6,600  Level Indianapolis Center
09:10AM 37.4281 -80.9164 331° Northwest 96 110 6,600  Level Indianapolis Center
09:11AM 37.4503 -80.9319 331° Northwest 96 110 6,600 -60 Level Indianapolis Center
09:12AM 37.4728 -80.9486 330° Northwest 95 109 6,500  Descending Indianapolis Center
09:13AM 37.4981 -80.9664 331° Northwest 95 109 6,600  Climbing Indianapolis Center
09:14AM 37.5181 -80.9797 332° Northwest 89 102 6,600  Level Indianapolis Center
09:15AM 37.5381 -80.9953 328° Northwest 89 102 6,600  Level Indianapolis Center
09:16AM 37.5589 -81.0081 334° Northwest 88 101 6,600  Level Indianapolis Center
09:17AM 37.5844 -81.0275 329° Northwest 88 101 6,600  Level Indianapolis Center
09:18AM 37.6086 -81.0422 334° Northwest 95 109 6,600  Level Indianapolis Center
09:19AM 37.6289 -81.0572 330° Northwest 94 108 6,600 -60 Level Indianapolis Center
09:21AM 37.6500 -81.0719 331° Northwest 93 107 6,500 -120 Descending Indianapolis Center
09:22AM 37.6750 -81.0911 329° Northwest 89 102 6,400  Descending Indianapolis Center
09:23AM 37.6953 -81.1050 332° Northwest 89 102 6,500  Climbing Indianapolis Center
09:24AM 37.7161 -81.1194 331° Northwest 88 101 6,500  Level Indianapolis Center
09:25AM 37.7411 -81.1381 330° Northwest 88 101 6,500  Level Indianapolis Center
09:26AM 37.7619 -81.1531 330° Northwest 88 101 6,500  Level Indianapolis Center
09:27AM 37.7839 -81.1683 331° Northwest 88 101 6,500  Level Indianapolis Center
09:28AM 37.8058 -81.1844 330° Northwest 89 102 6,500  Level Indianapolis Center
09:29AM 37.8294 -81.2011 331° Northwest 90 104 6,600  Climbing Indianapolis Center
09:30AM 37.8522 -81.2167 332° Northwest 91 105 6,500  Descending Indianapolis Center
09:31AM 37.8786 -81.2361 330° Northwest 91 105 6,600  Climbing Indianapolis Center
09:32AM 37.9008 -81.2525 330° Northwest 91 105 6,600 -60 Level Indianapolis Center
09:33AM 37.9233 -81.2686 331° Northwest 91 105 6,500  Descending Indianapolis Center
09:34AM 37.9456 -81.2842 331° Northwest 91 105 6,600  Climbing Indianapolis Center
09:35AM 37.9669 -81.2989 332° Northwest 91 105 6,600 -60 Level Indianapolis Center
09:36AM 37.9894 -81.3150 331° Northwest 91 105 6,500 -60 Descending Indianapolis Center
09:37AM 38.0122 -81.3314 330° Northwest 91 105 6,500  Level Indianapolis Center
09:38AM 38.0386 -81.3500 331° Northwest 91 105 6,600  Climbing Indianapolis Center
09:39AM 38.0617 -81.3658 332° Northwest 92 106 6,600 -60 Level Indianapolis Center
09:40AM 38.0850 -81.3808 333° Northwest 92 106 6,500 -300 Descending Indianapolis Center
09:41AM 38.1142 -81.3914 344° North 102 117 6,100 -540 Descending Indianapolis Center
09:42AM 38.1450 -81.4036 343° North 111 128 5,500 -600 Descending Indianapolis Center
09:43AM 38.1769 -81.4189 339° North 118 136 4,900 -540 Descending Indianapolis Center
09:44AM 38.2103 -81.4353 339° North 122 140 4,400 -540 Descending Indianapolis Center
09:45AM 38.2483 -81.4581 335° Northwest 124 143 3,800 -660 Descending Indianapolis Center
09:46AM 38.2778 -81.4786 331° Northwest 124 143 3,100 -540 Descending Indianapolis Center
09:47AM 38.3053 -81.5011 327° Northwest 122 140 2,700 -480 Descending Indianapolis Center
09:48AM 38.3317 -81.5247 325° Northwest 120 138 2,200 -480 Descending Indianapolis Center
09:49AM 38.3572 -81.5486 324° Northwest 118 136 1,800 -240 Descending Indianapolis Center
09:50AM 38.3756 -81.5661 323° Northwest 100 115 1,800 -300 Level Indianapolis Center
09:52AM 38.3878 -81.5822 314° West 79 91 1,200 -600 Descending Indianapolis Center